sensor_id;sensor_type;location;lat;lon;timestamp;pressure;altitude;pressure_sealevel;temperature;humidity
49311;BME280;35177;45.900;5.946;2023-08-12T00:01:29;97991.75;;;19.15;80.87
49311;BME280;35177;45.900;5.946;2023-08-12T00:03:54;97993.47;;;19.16;80.66
49311;BME280;35177;45.900;5.946;2023-08-12T00:06:19;97999.94;;;19.23;80.86
49311;BME280;35177;45.900;5.946;2023-08-12T00:08:45;97988.88;;;19.45;79.77
49311;BME280;35177;45.900;5.946;2023-08-12T00:11:10;97985.81;;;19.30;80.49
49311;BME280;35177;45.900;5.946;2023-08-12T00:13:36;97994.56;;;19.42;80.25
49311;BME280;35177;45.900;5.946;2023-08-12T00:16:01;97994.16;;;19.18;81.94
49311;BME280;35177;45.900;5.946;2023-08-12T00:18:26;97998.94;;;19.43;80.47
49311;BME280;35177;45.900;5.946;2023-08-12T00:20:52;98001.31;;;19.46;80.32
49311;BME280;35177;45.900;5.946;2023-08-12T00:23:17;98001.91;;;19.40;80.56
49311;BME280;35177;45.900;5.946;2023-08-12T00:25:43;98009.66;;;19.43;81.13
49311;BME280;35177;45.900;5.946;2023-08-12T00:28:08;98005.00;;;19.45;80.76
49311;BME280;35177;45.900;5.946;2023-08-12T00:30:35;98004.69;;;19.48;80.35
49311;BME280;35177;45.900;5.946;2023-08-12T00:33:00;98000.47;;;19.46;80.72
49311;BME280;35177;45.900;5.946;2023-08-12T00:35:26;98000.63;;;19.44;80.73
49311;BME280;35177;45.900;5.946;2023-08-12T00:37:51;98000.81;;;19.23;81.89
49311;BME280;35177;45.900;5.946;2023-08-12T00:40:17;97989.03;;;19.34;81.56
49311;BME280;35177;45.900;5.946;2023-08-12T00:42:42;97993.53;;;19.53;80.40
49311;BME280;35177;45.900;5.946;2023-08-12T00:45:10;97998.66;;;19.36;81.87
49311;BME280;35177;45.900;5.946;2023-08-12T00:47:38;97984.72;;;19.23;81.92
49311;BME280;35177;45.900;5.946;2023-08-12T00:50:05;97984.13;;;19.20;81.74
49311;BME280;35177;45.900;5.946;2023-08-12T00:52:32;97989.78;;;19.17;81.75
49311;BME280;35177;45.900;5.946;2023-08-12T00:54:57;98001.06;;;19.30;80.94
49311;BME280;35177;45.900;5.946;2023-08-12T00:57:22;98003.75;;;19.30;81.33
49311;BME280;35177;45.900;5.946;2023-08-12T00:59:48;98005.31;;;19.23;81.77
49311;BME280;35177;45.900;5.946;2023-08-12T01:02:14;98005.00;;;19.45;80.25
49311;BME280;35177;45.900;5.946;2023-08-12T01:04:40;97986.41;;;19.61;79.39
49311;BME280;35177;45.900;5.946;2023-08-12T01:07:05;97991.22;;;19.67;79.03
49311;BME280;35177;45.900;5.946;2023-08-12T01:09:31;97989.56;;;19.47;80.30
49311;BME280;35177;45.900;5.946;2023-08-12T01:12:03;97989.19;;;19.32;81.01
49311;BME280;35177;45.900;5.946;2023-08-12T01:17:05;97990.66;;;18.98;81.65
49311;BME280;35177;45.900;5.946;2023-08-12T01:19:37;97986.72;;;19.02;81.91
49311;BME280;35177;45.900;5.946;2023-08-12T01:22:04;97990.97;;;19.05;81.54
49311;BME280;35177;45.900;5.946;2023-08-12T01:24:41;97983.31;;;19.10;81.29
49311;BME280;35177;45.900;5.946;2023-08-12T01:27:08;97990.78;;;19.25;80.55
49311;BME280;35177;45.900;5.946;2023-08-12T01:29:38;97989.66;;;19.09;81.43
49311;BME280;35177;45.900;5.946;2023-08-12T01:32:29;97987.28;;;19.06;81.60
49311;BME280;35177;45.900;5.946;2023-08-12T01:35:19;97990.81;;;18.97;81.80
49311;BME280;35177;45.900;5.946;2023-08-12T01:37:48;97999.16;;;18.94;81.98
49311;BME280;35177;45.900;5.946;2023-08-12T01:40:16;97999.13;;;19.13;81.28
49311;BME280;35177;45.900;5.946;2023-08-12T01:42:42;97993.44;;;19.35;80.97
49311;BME280;35177;45.900;5.946;2023-08-12T01:45:08;97991.53;;;18.99;81.94
49311;BME280;35177;45.900;5.946;2023-08-12T01:47:34;97982.78;;;18.87;82.61
49311;BME280;35177;45.900;5.946;2023-08-12T01:49:59;97982.91;;;19.05;81.87
49311;BME280;35177;45.900;5.946;2023-08-12T01:52:25;97993.75;;;19.13;81.09
49311;BME280;35177;45.900;5.946;2023-08-12T01:54:51;97980.78;;;18.99;80.86
49311;BME280;35177;45.900;5.946;2023-08-12T01:57:16;97982.53;;;18.81;81.65
49311;BME280;35177;45.900;5.946;2023-08-12T01:59:42;97992.97;;;18.64;82.04
49311;BME280;35177;45.900;5.946;2023-08-12T02:02:09;97987.03;;;18.42;83.02
49311;BME280;35177;45.900;5.946;2023-08-12T02:04:34;97979.44;;;18.47;82.73
49311;BME280;35177;45.900;5.946;2023-08-12T02:07:01;97983.22;;;18.63;82.16
49311;BME280;35177;45.900;5.946;2023-08-12T02:09:27;97982.94;;;18.47;83.01
49311;BME280;35177;45.900;5.946;2023-08-12T02:11:52;97985.31;;;18.31;83.98
49311;BME280;35177;45.900;5.946;2023-08-12T02:14:18;97987.03;;;18.42;82.98
49311;BME280;35177;45.900;5.946;2023-08-12T02:16:43;97982.81;;;18.49;82.45
49311;BME280;35177;45.900;5.946;2023-08-12T02:19:08;97987.06;;;18.51;82.21
49311;BME280;35177;45.900;5.946;2023-08-12T02:21:34;97985.63;;;18.66;81.97
49311;BME280;35177;45.900;5.946;2023-08-12T02:23:59;97981.25;;;18.65;82.29
49311;BME280;35177;45.900;5.946;2023-08-12T02:26:25;97982.19;;;18.36;82.86
49311;BME280;35177;45.900;5.946;2023-08-12T02:28:50;97980.25;;;18.28;82.83
49311;BME280;35177;45.900;5.946;2023-08-12T02:31:16;97989.81;;;18.31;82.78
49311;BME280;35177;45.900;5.946;2023-08-12T02:33:42;97983.00;;;18.08;84.07
49311;BME280;35177;45.900;5.946;2023-08-12T02:36:08;97977.06;;;17.85;84.83
49311;BME280;35177;45.900;5.946;2023-08-12T02:38:33;97969.63;;;17.98;85.25
49311;BME280;35177;45.900;5.946;2023-08-12T02:40:59;97971.75;;;18.14;84.76
49311;BME280;35177;45.900;5.946;2023-08-12T02:43:24;97975.44;;;18.41;83.46
49311;BME280;35177;45.900;5.946;2023-08-12T02:45:50;97968.38;;;18.40;83.52
49311;BME280;35177;45.900;5.946;2023-08-12T02:48:15;97966.41;;;18.23;84.01
49311;BME280;35177;45.900;5.946;2023-08-12T02:50:41;97963.97;;;18.01;85.22
49311;BME280;35177;45.900;5.946;2023-08-12T02:53:07;97980.47;;;18.06;85.31
49311;BME280;35177;45.900;5.946;2023-08-12T02:55:33;97984.44;;;18.31;83.22
49311;BME280;35177;45.900;5.946;2023-08-12T02:57:59;97981.06;;;18.19;85.08
49311;BME280;35177;45.900;5.946;2023-08-12T03:00:25;97975.00;;;18.17;84.21
49311;BME280;35177;45.900;5.946;2023-08-12T03:02:50;97979.59;;;17.96;84.19
49311;BME280;35177;45.900;5.946;2023-08-12T03:05:16;97983.81;;;17.89;84.50
49311;BME280;35177;45.900;5.946;2023-08-12T03:07:42;97983.91;;;17.68;85.56
49311;BME280;35177;45.900;5.946;2023-08-12T03:10:07;97977.81;;;18.06;84.93
49311;BME280;35177;45.900;5.946;2023-08-12T03:12:34;97983.28;;;17.95;84.98
49311;BME280;35177;45.900;5.946;2023-08-12T03:15:01;97983.47;;;18.22;84.48
49311;BME280;35177;45.900;5.946;2023-08-12T03:17:26;97983.47;;;18.22;84.02
49311;BME280;35177;45.900;5.946;2023-08-12T03:19:52;97981.16;;;17.98;85.31
49311;BME280;35177;45.900;5.946;2023-08-12T03:22:19;97975.69;;;18.00;85.95
49311;BME280;35177;45.900;5.946;2023-08-12T03:24:44;97982.31;;;18.15;85.44
49311;BME280;35177;45.900;5.946;2023-08-12T03:27:10;97973.16;;;18.08;85.68
49311;BME280;35177;45.900;5.946;2023-08-12T03:29:35;97967.22;;;17.95;86.26
49311;BME280;35177;45.900;5.946;2023-08-12T03:32:01;97969.16;;;17.83;87.61
49311;BME280;35177;45.900;5.946;2023-08-12T03:34:28;97975.41;;;18.03;87.11
49311;BME280;35177;45.900;5.946;2023-08-12T03:36:54;97971.06;;;18.12;85.98
49311;BME280;35177;45.900;5.946;2023-08-12T03:39:20;97972.59;;;18.24;84.75
49311;BME280;35177;45.900;5.946;2023-08-12T03:41:45;97979.69;;;18.44;83.81
49311;BME280;35177;45.900;5.946;2023-08-12T03:44:11;97974.47;;;18.52;83.37
49311;BME280;35177;45.900;5.946;2023-08-12T03:46:36;97981.34;;;18.35;83.49
49311;BME280;35177;45.900;5.946;2023-08-12T03:49:02;97979.06;;;17.92;84.78
49311;BME280;35177;45.900;5.946;2023-08-12T03:51:27;97974.28;;;18.05;84.10
49311;BME280;35177;45.900;5.946;2023-08-12T03:53:53;97975.84;;;18.08;84.10
49311;BME280;35177;45.900;5.946;2023-08-12T03:56:18;97980.09;;;18.20;83.70
49311;BME280;35177;45.900;5.946;2023-08-12T03:58:44;97974.69;;;18.01;84.05
49311;BME280;35177;45.900;5.946;2023-08-12T04:01:09;97976.53;;;17.91;84.73
49311;BME280;35177;45.900;5.946;2023-08-12T04:03:34;97971.88;;;17.93;84.87
49311;BME280;35177;45.900;5.946;2023-08-12T04:06:00;97970.59;;;17.97;83.39
49311;BME280;35177;45.900;5.946;2023-08-12T04:08:25;97966.28;;;17.66;85.29
49311;BME280;35177;45.900;5.946;2023-08-12T04:10:51;97959.56;;;17.81;85.13
49311;BME280;35177;45.900;5.946;2023-08-12T04:13:17;97959.56;;;17.81;85.14
49311;BME280;35177;45.900;5.946;2023-08-12T04:15:42;97965.16;;;17.68;86.72
49311;BME280;35177;45.900;5.946;2023-08-12T04:18:08;97971.09;;;17.72;86.12
49311;BME280;35177;45.900;5.946;2023-08-12T04:20:34;97973.78;;;17.42;86.84
49311;BME280;35177;45.900;5.946;2023-08-12T04:22:59;97978.47;;;17.49;86.92
49311;BME280;35177;45.900;5.946;2023-08-12T04:25:25;97982.72;;;17.52;86.89
49311;BME280;35177;45.900;5.946;2023-08-12T04:27:50;97975.88;;;17.68;85.70
49311;BME280;35177;45.900;5.946;2023-08-12T04:30:17;97974.41;;;17.55;86.00
49311;BME280;35177;45.900;5.946;2023-08-12T04:32:42;97979.28;;;17.80;85.03
49311;BME280;35177;45.900;5.946;2023-08-12T04:35:08;97974.00;;;17.99;85.15
49311;BME280;35177;45.900;5.946;2023-08-12T04:37:34;97971.84;;;17.83;86.21
49311;BME280;35177;45.900;5.946;2023-08-12T04:40:00;97970.16;;;17.92;86.23
49311;BME280;35177;45.900;5.946;2023-08-12T04:42:25;97976.59;;;17.80;86.54
49311;BME280;35177;45.900;5.946;2023-08-12T04:44:51;97974.38;;;17.85;86.62
49311;BME280;35177;45.900;5.946;2023-08-12T04:47:17;97975.78;;;17.79;86.85
49311;BME280;35177;45.900;5.946;2023-08-12T04:49:42;97971.22;;;17.70;87.42
49311;BME280;35177;45.900;5.946;2023-08-12T04:52:08;97982.41;;;17.85;86.16
49311;BME280;35177;45.900;5.946;2023-08-12T04:54:33;97975.63;;;17.81;86.85
49311;BME280;35177;45.900;5.946;2023-08-12T04:56:59;97969.31;;;17.91;86.23
49311;BME280;35177;45.900;5.946;2023-08-12T04:59:25;97976.53;;;17.91;86.76
49311;BME280;35177;45.900;5.946;2023-08-12T05:01:50;97978.03;;;17.93;86.12
49311;BME280;35177;45.900;5.946;2023-08-12T05:04:16;97970.00;;;17.74;87.25
49311;BME280;35177;45.900;5.946;2023-08-12T05:06:41;97973.16;;;17.59;88.46
49311;BME280;35177;45.900;5.946;2023-08-12T05:09:07;97965.72;;;17.62;88.87
49311;BME280;35177;45.900;5.946;2023-08-12T05:11:33;97961.75;;;17.57;89.71
49311;BME280;35177;45.900;5.946;2023-08-12T05:13:59;97964.47;;;17.66;88.98
49311;BME280;35177;45.900;5.946;2023-08-12T05:16:25;97958.97;;;17.58;89.46
49311;BME280;35177;45.900;5.946;2023-08-12T05:18:50;97957.09;;;17.59;89.46
49311;BME280;35177;45.900;5.946;2023-08-12T05:21:16;97959.00;;;17.68;89.08
49311;BME280;35177;45.900;5.946;2023-08-12T05:23:41;97963.28;;;17.99;87.74
49311;BME280;35177;45.900;5.946;2023-08-12T05:26:07;97966.13;;;18.07;86.99
49311;BME280;35177;45.900;5.946;2023-08-12T05:28:32;97968.22;;;18.13;87.00
49311;BME280;35177;45.900;5.946;2023-08-12T05:30:58;97967.53;;;18.11;86.63
49311;BME280;35177;45.900;5.946;2023-08-12T05:33:23;97969.09;;;18.42;85.36
49311;BME280;35177;45.900;5.946;2023-08-12T05:35:49;97970.69;;;18.64;84.31
49311;BME280;35177;45.900;5.946;2023-08-12T05:38:15;97970.50;;;18.85;83.59
49311;BME280;35177;45.900;5.946;2023-08-12T05:40:41;97954.09;;;19.16;82.10
49311;BME280;35177;45.900;5.946;2023-08-12T05:43:06;97957.56;;;19.36;81.48
49311;BME280;35177;45.900;5.946;2023-08-12T05:45:32;97967.44;;;19.72;78.29
49311;BME280;35177;45.900;5.946;2023-08-12T05:47:57;97976.28;;;19.82;78.17
49311;BME280;35177;45.900;5.946;2023-08-12T05:50:23;97970.34;;;19.52;80.02
49311;BME280;35177;45.900;5.946;2023-08-12T05:52:48;97972.28;;;19.59;79.69
49311;BME280;35177;45.900;5.946;2023-08-12T05:55:13;97962.63;;;19.93;78.01
49311;BME280;35177;45.900;5.946;2023-08-12T05:57:39;97964.44;;;20.02;77.05
49311;BME280;35177;45.900;5.946;2023-08-12T06:00:05;97967.38;;;20.09;77.80
49311;BME280;35177;45.900;5.946;2023-08-12T06:02:31;97963.91;;;20.17;75.76
49311;BME280;35177;45.900;5.946;2023-08-12T06:04:56;97968.09;;;20.29;76.03
49311;BME280;35177;45.900;5.946;2023-08-12T06:07:22;97981.94;;;20.34;75.74
49311;BME280;35177;45.900;5.946;2023-08-12T06:09:49;97972.88;;;20.07;77.77
49311;BME280;35177;45.900;5.946;2023-08-12T06:12:15;97969.28;;;20.17;77.40
49311;BME280;35177;45.900;5.946;2023-08-12T06:14:40;97973.19;;;20.32;77.44
49311;BME280;35177;45.900;5.946;2023-08-12T06:17:06;97967.34;;;20.54;76.71
49311;BME280;35177;45.900;5.946;2023-08-12T06:19:32;97971.63;;;20.47;77.37
49311;BME280;35177;45.900;5.946;2023-08-12T06:21:57;97971.09;;;20.78;75.19
49311;BME280;35177;45.900;5.946;2023-08-12T06:24:22;97976.22;;;21.07;74.52
49311;BME280;35177;45.900;5.946;2023-08-12T06:26:48;97978.22;;;21.05;75.87
49311;BME280;35177;45.900;5.946;2023-08-12T06:29:13;97980.16;;;20.95;75.95
49311;BME280;35177;45.900;5.946;2023-08-12T06:31:39;97989.94;;;21.22;73.46
49311;BME280;35177;45.900;5.946;2023-08-12T06:34:04;97991.19;;;21.10;74.97
49311;BME280;35177;45.900;5.946;2023-08-12T06:36:29;97996.97;;;21.15;73.81
49311;BME280;35177;45.900;5.946;2023-08-12T06:38:55;98002.50;;;21.13;75.49
49311;BME280;35177;45.900;5.946;2023-08-12T06:41:20;98001.50;;;21.14;73.81
49311;BME280;35177;45.900;5.946;2023-08-12T06:43:46;98006.75;;;21.16;74.52
49311;BME280;35177;45.900;5.946;2023-08-12T06:46:11;97996.06;;;21.06;75.05
49311;BME280;35177;45.900;5.946;2023-08-12T06:48:36;97994.50;;;21.04;75.31
49311;BME280;35177;45.900;5.946;2023-08-12T06:51:02;98002.34;;;20.97;75.61
49311;BME280;35177;45.900;5.946;2023-08-12T06:53:35;98013.19;;;21.05;76.17
49311;BME280;35177;45.900;5.946;2023-08-12T06:56:00;98008.63;;;21.23;75.05
49311;BME280;35177;45.900;5.946;2023-08-12T06:58:26;98012.63;;;21.45;73.12
49311;BME280;35177;45.900;5.946;2023-08-12T07:00:51;98007.53;;;21.68;72.07
49311;BME280;35177;45.900;5.946;2023-08-12T07:03:18;98013.28;;;21.90;69.95
49311;BME280;35177;45.900;5.946;2023-08-12T07:05:44;98007.47;;;22.11;69.30
49311;BME280;35177;45.900;5.946;2023-08-12T07:08:09;98011.19;;;22.26;65.62
49311;BME280;35177;45.900;5.946;2023-08-12T07:10:38;98008.50;;;22.26;63.71
49311;BME280;35177;45.900;5.946;2023-08-12T07:13:04;98005.97;;;22.33;64.45
49311;BME280;35177;45.900;5.946;2023-08-12T07:15:29;98003.50;;;22.39;64.16
49311;BME280;35177;45.900;5.946;2023-08-12T07:17:55;98007.00;;;22.40;63.29
49311;BME280;35177;45.900;5.946;2023-08-12T07:20:20;98002.47;;;22.32;63.71
49311;BME280;35177;45.900;5.946;2023-08-12T07:22:46;98000.31;;;22.52;65.10
49311;BME280;35177;45.900;5.946;2023-08-12T07:25:11;97998.34;;;22.62;64.71
49311;BME280;35177;45.900;5.946;2023-08-12T07:27:37;97997.81;;;22.74;64.15
49311;BME280;35177;45.900;5.946;2023-08-12T07:30:03;97993.47;;;22.90;64.27
49311;BME280;35177;45.900;5.946;2023-08-12T07:32:28;97998.84;;;23.06;63.58
49311;BME280;35177;45.900;5.946;2023-08-12T07:34:53;97998.16;;;23.12;63.47
49311;BME280;35177;45.900;5.946;2023-08-12T07:37:19;98005.06;;;23.30;62.68
49311;BME280;35177;45.900;5.946;2023-08-12T07:39:45;97999.50;;;23.24;60.85
49311;BME280;35177;45.900;5.946;2023-08-12T07:42:10;98003.06;;;23.24;62.97
49311;BME280;35177;45.900;5.946;2023-08-12T07:44:36;98002.06;;;23.25;60.66
49311;BME280;35177;45.900;5.946;2023-08-12T07:47:01;98004.06;;;23.23;60.63
49311;BME280;35177;45.900;5.946;2023-08-12T07:49:27;98014.88;;;23.31;61.68
49311;BME280;35177;45.900;5.946;2023-08-12T07:51:52;98004.25;;;23.30;62.64
49311;BME280;35177;45.900;5.946;2023-08-12T07:54:18;98011.69;;;23.44;62.47
49311;BME280;35177;45.900;5.946;2023-08-12T07:56:43;98009.66;;;23.46;60.92
49311;BME280;35177;45.900;5.946;2023-08-12T07:59:08;98003.84;;;23.65;60.90
49311;BME280;35177;45.900;5.946;2023-08-12T08:01:34;98007.34;;;23.90;60.37
49311;BME280;35177;45.900;5.946;2023-08-12T08:03:59;97998.84;;;24.01;58.47
49311;BME280;35177;45.900;5.946;2023-08-12T08:06:25;97995.09;;;24.18;59.07
49311;BME280;35177;45.900;5.946;2023-08-12T08:08:50;97991.75;;;24.39;57.61
49311;BME280;35177;45.900;5.946;2023-08-12T08:13:41;97999.28;;;24.51;56.00
49311;BME280;35177;45.900;5.946;2023-08-12T08:16:06;98003.44;;;24.62;55.92
49311;BME280;35177;45.900;5.946;2023-08-12T08:18:32;98002.38;;;24.71;55.98
49311;BME280;35177;45.900;5.946;2023-08-12T08:20:57;97994.19;;;24.79;56.10
49311;BME280;35177;45.900;5.946;2023-08-12T08:23:23;97997.59;;;24.81;55.83
49311;BME280;35177;45.900;5.946;2023-08-12T08:25:48;98000.00;;;24.99;55.06
49311;BME280;35177;45.900;5.946;2023-08-12T08:28:14;98002.75;;;24.91;56.57
49311;BME280;35177;45.900;5.946;2023-08-12T08:30:39;98003.56;;;25.14;55.14
49311;BME280;35177;45.900;5.946;2023-08-12T08:33:05;98001.41;;;25.09;53.07
49311;BME280;35177;45.900;5.946;2023-08-12T08:35:30;97997.69;;;25.10;55.07
49311;BME280;35177;45.900;5.946;2023-08-12T08:37:56;97993.81;;;25.27;53.85
49311;BME280;35177;45.900;5.946;2023-08-12T08:40:21;97998.38;;;25.27;52.86
49311;BME280;35177;45.900;5.946;2023-08-12T08:42:51;97999.22;;;25.50;53.25
49311;BME280;35177;45.900;5.946;2023-08-12T08:45:18;98000.34;;;25.70;51.26
49311;BME280;35177;45.900;5.946;2023-08-12T08:47:46;98002.69;;;25.73;53.13
49311;BME280;35177;45.900;5.946;2023-08-12T08:50:13;97997.88;;;26.04;50.89
49311;BME280;35177;45.900;5.946;2023-08-12T08:52:39;97998.69;;;26.13;50.80
49311;BME280;35177;45.900;5.946;2023-08-12T08:55:05;97994.69;;;26.45;50.03
49311;BME280;35177;45.900;5.946;2023-08-12T08:57:31;97982.56;;;26.26;51.01
49311;BME280;35177;45.900;5.946;2023-08-12T08:59:57;97993.16;;;26.57;49.72
49311;BME280;35177;45.900;5.946;2023-08-12T09:02:23;97997.50;;;26.72;47.64
49311;BME280;35177;45.900;5.946;2023-08-12T09:04:50;97993.06;;;27.07;45.89
49311;BME280;35177;45.900;5.946;2023-08-12T09:07:16;98000.50;;;26.99;45.15
49311;BME280;35177;45.900;5.946;2023-08-12T09:09:45;97999.56;;;27.34;46.14
49311;BME280;35177;45.900;5.946;2023-08-12T09:12:14;97996.13;;;27.46;45.43
49311;BME280;35177;45.900;5.946;2023-08-12T09:14:41;97995.41;;;27.10;45.40
49311;BME280;35177;45.900;5.946;2023-08-12T09:17:07;97997.03;;;27.53;44.96
49311;BME280;35177;45.900;5.946;2023-08-12T09:19:32;97990.06;;;27.44;44.58
49311;BME280;35177;45.900;5.946;2023-08-12T09:21:58;97992.81;;;27.51;44.56
49311;BME280;35177;45.900;5.946;2023-08-12T09:24:27;97990.47;;;27.69;45.70
49311;BME280;35177;45.900;5.946;2023-08-12T09:26:56;97994.22;;;28.02;44.36
49311;BME280;35177;45.900;5.946;2023-08-12T09:29:32;97993.31;;;27.95;43.64
49311;BME280;35177;45.900;5.946;2023-08-12T09:32:11;97986.50;;;27.99;43.66
49311;BME280;35177;45.900;5.946;2023-08-12T09:34:44;97991.50;;;28.02;41.79
49311;BME280;35177;45.900;5.946;2023-08-12T09:37:12;98000.66;;;28.36;43.41
49311;BME280;35177;45.900;5.946;2023-08-12T09:39:38;97992.66;;;28.68;41.58
49311;BME280;35177;45.900;5.946;2023-08-12T09:42:04;97993.75;;;28.94;41.68
49311;BME280;35177;45.900;5.946;2023-08-12T09:44:30;97996.47;;;29.00;38.89
49311;BME280;35177;45.900;5.946;2023-08-12T09:46:58;97991.41;;;28.90;41.40
49311;BME280;35177;45.900;5.946;2023-08-12T09:49:24;97997.16;;;29.28;39.49
49311;BME280;35177;45.900;5.946;2023-08-12T09:51:51;98002.81;;;29.40;41.15
49311;BME280;35177;45.900;5.946;2023-08-12T09:54:17;98002.81;;;29.53;40.85
49311;BME280;35177;45.900;5.946;2023-08-12T09:56:51;98003.66;;;29.47;39.33
49311;BME280;35177;45.900;5.946;2023-08-12T09:59:19;97993.38;;;29.36;39.23
49311;BME280;35177;45.900;5.946;2023-08-12T10:01:48;98007.31;;;30.18;39.02
49311;BME280;35177;45.900;5.946;2023-08-12T10:04:17;97996.44;;;30.11;38.16
49311;BME280;35177;45.900;5.946;2023-08-12T10:06:44;98002.56;;;30.58;37.12
49311;BME280;35177;45.900;5.946;2023-08-12T10:09:10;97998.47;;;30.36;37.21
49311;BME280;35177;45.900;5.946;2023-08-12T10:11:37;97995.25;;;30.96;36.43
49311;BME280;35177;45.900;5.946;2023-08-12T10:14:04;98005.34;;;30.51;37.92
49311;BME280;35177;45.900;5.946;2023-08-12T10:16:30;97999.81;;;30.64;37.08
49311;BME280;35177;45.900;5.946;2023-08-12T10:18:57;97998.16;;;30.06;39.02
49311;BME280;35177;45.900;5.946;2023-08-12T10:21:24;97990.38;;;30.03;38.05
49311;BME280;35177;45.900;5.946;2023-08-12T10:23:50;97988.22;;;30.18;38.06
49311;BME280;35177;45.900;5.946;2023-08-12T10:26:17;97979.66;;;30.08;37.57
49311;BME280;35177;45.900;5.946;2023-08-12T10:28:43;97977.19;;;29.87;38.05
49311;BME280;35177;45.900;5.946;2023-08-12T10:31:11;97972.16;;;29.57;39.08
49311;BME280;35177;45.900;5.946;2023-08-12T10:33:39;97970.50;;;29.37;40.05
49311;BME280;35177;45.900;5.946;2023-08-12T10:36:05;97969.81;;;29.94;39.14
49311;BME280;35177;45.900;5.946;2023-08-12T10:38:32;97971.50;;;30.01;39.12
49311;BME280;35177;45.900;5.946;2023-08-12T10:41:20;97961.53;;;30.27;38.19
49311;BME280;35177;45.900;5.946;2023-08-12T10:43:59;97964.63;;;30.43;37.09
49311;BME280;35177;45.900;5.946;2023-08-12T10:46:33;97951.78;;;30.81;37.85
49311;BME280;35177;45.900;5.946;2023-08-12T10:49:03;97958.75;;;31.09;37.17
49311;BME280;35177;45.900;5.946;2023-08-12T10:51:45;97954.06;;;30.91;38.33
49311;BME280;35177;45.900;5.946;2023-08-12T10:54:14;97952.78;;;30.94;37.14
49311;BME280;35177;45.900;5.946;2023-08-12T10:59:51;97941.84;;;30.94;37.07
49311;BME280;35177;45.900;5.946;2023-08-12T11:02:27;97930.31;;;31.41;36.80
49311;BME280;35177;45.900;5.946;2023-08-12T11:04:54;97930.22;;;31.72;35.92
49311;BME280;35177;45.900;5.946;2023-08-12T11:07:29;97941.03;;;30.86;36.85
49311;BME280;35177;45.900;5.946;2023-08-12T11:09:59;97932.47;;;30.45;37.73
49311;BME280;35177;45.900;5.946;2023-08-12T11:12:33;97928.75;;;30.33;38.27
49311;BME280;35177;45.900;5.946;2023-08-12T11:15:00;97924.63;;;30.04;39.32
49311;BME280;35177;45.900;5.946;2023-08-12T11:17:36;97930.81;;;29.87;39.56
49311;BME280;35177;45.900;5.946;2023-08-12T11:20:04;97917.78;;;29.69;39.94
49311;BME280;35177;45.900;5.946;2023-08-12T11:22:31;97918.47;;;29.51;40.22
49311;BME280;35177;45.900;5.946;2023-08-12T11:24:57;97915.94;;;29.56;40.17
49311;BME280;35177;45.900;5.946;2023-08-12T11:27:23;97921.41;;;29.56;40.54
49311;BME280;35177;45.900;5.946;2023-08-12T11:29:51;97919.72;;;29.55;40.91
49311;BME280;35177;45.900;5.946;2023-08-12T11:32:18;97926.00;;;29.63;40.75
49311;BME280;35177;45.900;5.946;2023-08-12T11:34:43;97920.56;;;29.56;40.24
49311;BME280;35177;45.900;5.946;2023-08-12T11:37:09;97921.00;;;29.60;40.65
49311;BME280;35177;45.900;5.946;2023-08-12T11:39:35;97921.78;;;29.73;41.54
49311;BME280;35177;45.900;5.946;2023-08-12T11:42:00;97918.00;;;29.68;41.91
49311;BME280;35177;45.900;5.946;2023-08-12T11:44:26;97913.22;;;29.56;40.66
49311;BME280;35177;45.900;5.946;2023-08-12T11:46:51;97915.34;;;29.48;40.56
49311;BME280;35177;45.900;5.946;2023-08-12T11:49:17;97914.72;;;29.52;41.20
49311;BME280;35177;45.900;5.946;2023-08-12T11:51:43;97921.81;;;29.53;41.52
49311;BME280;35177;45.900;5.946;2023-08-12T11:54:10;97917.59;;;29.57;40.77
49311;BME280;35177;45.900;5.946;2023-08-12T11:56:36;97910.72;;;29.55;40.79
49311;BME280;35177;45.900;5.946;2023-08-12T11:59:02;97908.81;;;29.55;40.25
49311;BME280;35177;45.900;5.946;2023-08-12T12:01:27;97909.63;;;29.63;40.67
49311;BME280;35177;45.900;5.946;2023-08-12T12:03:54;97916.34;;;29.67;40.87
49311;BME280;35177;45.900;5.946;2023-08-12T12:06:35;97908.38;;;29.58;39.94
49311;BME280;35177;45.900;5.946;2023-08-12T12:09:04;97907.56;;;29.51;41.41
49311;BME280;35177;45.900;5.946;2023-08-12T12:11:32;97912.59;;;29.41;41.74
49311;BME280;35177;45.900;5.946;2023-08-12T12:14:03;97904.66;;;29.33;41.94
49311;BME280;35177;45.900;5.946;2023-08-12T12:16:46;97911.38;;;29.37;42.19
49311;BME280;35177;45.900;5.946;2023-08-12T12:19:22;97908.03;;;29.29;41.20
49311;BME280;35177;45.900;5.946;2023-08-12T12:21:50;97908.84;;;29.16;41.87
49311;BME280;35177;45.900;5.946;2023-08-12T12:24:16;97917.88;;;29.10;41.83
49311;BME280;35177;45.900;5.946;2023-08-12T12:26:43;97910.09;;;29.14;40.87
49311;BME280;35177;45.900;5.946;2023-08-12T12:29:10;97913.47;;;29.03;42.54
49311;BME280;35177;45.900;5.946;2023-08-12T12:31:40;97909.69;;;29.10;41.41
49311;BME280;35177;45.900;5.946;2023-08-12T12:34:06;97910.31;;;29.12;40.25
49311;BME280;35177;45.900;5.946;2023-08-12T12:36:34;97908.63;;;29.05;40.49
49311;BME280;35177;45.900;5.946;2023-08-12T12:38:59;97910.34;;;28.99;41.96
49311;BME280;35177;45.900;5.946;2023-08-12T12:41:25;97910.97;;;29.01;40.87
49311;BME280;35177;45.900;5.946;2023-08-12T12:43:50;97916.41;;;29.01;41.19
49311;BME280;35177;45.900;5.946;2023-08-12T12:46:16;97917.88;;;29.04;41.40
49311;BME280;35177;45.900;5.946;2023-08-12T12:48:42;97916.81;;;28.98;43.05
49311;BME280;35177;45.900;5.946;2023-08-12T12:51:08;97908.84;;;29.03;41.63
49311;BME280;35177;45.900;5.946;2023-08-12T12:53:33;97912.22;;;28.92;42.25
49311;BME280;35177;45.900;5.946;2023-08-12T12:55:59;97909.88;;;29.02;42.10
49311;BME280;35177;45.900;5.946;2023-08-12T12:58:32;97914.94;;;28.99;41.05
49311;BME280;35177;45.900;5.946;2023-08-12T13:00:59;97906.13;;;28.97;42.43
49311;BME280;35177;45.900;5.946;2023-08-12T13:03:25;97906.72;;;28.85;42.79
49311;BME280;35177;45.900;5.946;2023-08-12T13:05:51;97913.47;;;28.83;44.20